createdAt,value
2022-10-21T00:00:24.822Z,101172.50
2022-10-21T00:02:26.263Z,101168.09
2022-10-21T00:04:27.721Z,101173.34
2022-10-21T00:06:29.453Z,101163.63
2022-10-21T00:08:30.995Z,101169.81
2022-10-21T00:10:32.501Z,101163.63
2022-10-21T00:12:34.501Z,101169.75
2022-10-21T00:14:36.050Z,101160.00
2022-10-21T00:16:37.508Z,101157.34
2022-10-21T00:18:40.566Z,101153.03
2022-10-21T00:20:42.125Z,101152.13
2022-10-21T00:22:43.565Z,101147.66
2022-10-21T00:24:45.051Z,101144.09
2022-10-21T00:26:46.508Z,101145.84
2022-10-21T00:28:48.031Z,101147.56
2022-10-21T00:30:49.704Z,101147.50
2022-10-21T00:32:51.123Z,101152.81
2022-10-21T00:34:52.528Z,101143.09
2022-10-21T00:36:54.063Z,101145.78
2022-10-21T00:38:56.920Z,101140.38
2022-10-21T00:40:59.243Z,101143.06
2022-10-21T00:43:00.892Z,101133.41
2022-10-21T00:45:05.363Z,101127.22
2022-10-21T00:47:16.948Z,101124.56
2022-10-21T00:49:28.874Z,101124.56
2022-10-21T00:51:31.451Z,101131.63
2022-10-21T00:53:35.295Z,101130.72
2022-10-21T00:55:43.602Z,101128.03
2022-10-21T00:57:45.152Z,101121.88
2022-10-21T00:59:50.622Z,101114.03
2022-10-21T01:01:52.600Z,101114.88
2022-10-21T01:03:54.042Z,101104.34
2022-10-21T01:05:58.732Z,101107.81
2022-10-21T01:08:00.667Z,101108.72
2022-10-21T01:10:02.200Z,101099.97
2022-10-21T01:12:10.499Z,101097.28
2022-10-21T01:14:30.580Z,101094.69
2022-10-21T01:17:01.316Z,101085.09
2022-10-21T01:19:42.654Z,101086.88
2022-10-21T01:21:52.726Z,101084.25
2022-10-21T01:24:09.058Z,101082.50
2022-10-21T01:26:29.563Z,101075.50
2022-10-21T01:28:39.996Z,101085.16
2022-10-21T01:30:57.835Z,101076.41
2022-10-21T01:35:24.409Z,101068.50
2022-10-21T01:37:35.464Z,101079.06
2022-10-21T01:40:03.070Z,101077.31
2022-10-21T01:42:27.552Z,101074.00
2022-10-21T01:44:28.924Z,101070.44
2022-10-21T01:46:41.709Z,101070.44
2022-10-21T01:48:48.680Z,101069.63
2022-10-21T01:51:00.810Z,101062.56
2022-10-21T01:53:06.853Z,101062.66
2022-10-21T01:55:12.201Z,101061.78
2022-10-21T01:57:16.787Z,101057.38
2022-10-21T01:59:21.457Z,101056.50
2022-10-21T02:01:24.282Z,101044.19
2022-10-21T02:03:34.727Z,101042.47
2022-10-21T02:05:36.722Z,101034.59
2022-10-21T02:07:38.179Z,101039.88
2022-10-21T02:09:39.614Z,101027.56
2022-10-21T02:11:44.476Z,101028.47
2022-10-21T02:13:57.526Z,101031.16
2022-10-21T02:16:03.444Z,101026.75
2022-10-21T02:18:09.818Z,101017.94
2022-10-21T02:20:14.712Z,101012.72
2022-10-21T02:22:21.514Z,101017.13
2022-10-21T02:24:47.886Z,101014.50
2022-10-21T02:26:49.520Z,101000.41
2022-10-21T02:28:52.724Z,101003.06
2022-10-21T02:31:20.092Z,100999.50
2022-10-21T02:33:33.300Z,100994.31
2022-10-21T02:35:55.371Z,100992.53
2022-10-21T02:38:19.870Z,100994.31
2022-10-21T02:40:31.937Z,100996.09
2022-10-21T02:42:39.585Z,100990.84
2022-10-21T02:44:41.195Z,100992.56
2022-10-21T02:46:46.537Z,100993.44
2022-10-21T02:48:48.804Z,100994.34
2022-10-21T02:50:50.592Z,100989.94
2022-10-21T02:52:52.211Z,100994.34
2022-10-21T02:54:53.630Z,100989.13
2022-10-21T02:56:55.081Z,100991.78
2022-10-21T02:58:56.534Z,100994.47
2022-10-21T03:00:58.511Z,100990.06
2022-10-21T03:03:00.713Z,100990.97
2022-10-21T03:05:02.247Z,100983.91
2022-10-21T03:07:03.687Z,100983.88
2022-10-21T03:09:05.404Z,100978.63
2022-10-21T03:11:06.946Z,100971.56
2022-10-21T03:13:08.395Z,100960.16
2022-10-21T03:15:10.316Z,100959.28
2022-10-21T03:17:11.804Z,100961.03
2022-10-21T03:19:13.375Z,100963.66
2022-10-21T03:21:14.831Z,100963.66
2022-10-21T03:23:17.792Z,100960.13
2022-10-21T03:25:19.267Z,100959.25
2022-10-21T03:27:20.698Z,100964.53
2022-10-21T03:29:22.280Z,100972.44
2022-10-21T03:31:23.837Z,100968.06
2022-10-21T03:33:25.288Z,100976.00
2022-10-21T03:35:27.675Z,100963.69
2022-10-21T03:37:29.087Z,100958.38
2022-10-21T03:39:30.525Z,100972.50
2022-10-21T03:41:31.988Z,100961.94
2022-10-21T03:43:33.468Z,100964.59
2022-10-21T03:45:34.983Z,100964.59
2022-10-21T03:47:36.418Z,100965.47
2022-10-21T03:49:37.846Z,100960.19
2022-10-21T03:51:39.284Z,100967.22
2022-10-21T03:53:44.044Z,100967.16
2022-10-21T03:55:45.615Z,100955.75
2022-10-21T03:57:47.836Z,100954.78
2022-10-21T03:59:49.258Z,100958.31
2022-10-21T04:01:50.770Z,100944.19
2022-10-21T04:03:52.451Z,100942.38
2022-10-21T04:05:54.032Z,100943.25
2022-10-21T04:07:55.459Z,100943.19
2022-10-21T04:09:56.896Z,100937.00
2022-10-21T04:11:58.344Z,100933.47
2022-10-21T04:13:59.786Z,100929.00
2022-10-21T04:16:03.659Z,100929.88
2022-10-21T04:18:05.949Z,100932.47
2022-10-21T04:20:08.156Z,100926.28
2022-10-21T04:22:09.821Z,100929.75
2022-10-21T04:24:11.555Z,100926.19
2022-10-21T04:26:13.051Z,100924.44
2022-10-21T04:28:14.578Z,100931.41
2022-10-21T04:30:16.174Z,100927.03
2022-10-21T04:32:17.604Z,100927.84
2022-10-21T04:34:19.026Z,100926.91
2022-10-21T04:36:20.496Z,100929.50
2022-10-21T04:38:23.111Z,100930.31
2022-10-21T04:40:24.609Z,100934.72
2022-10-21T04:42:26.042Z,100931.19
2022-10-21T04:44:27.459Z,100924.13
2022-10-21T04:46:28.904Z,100932.03
2022-10-21T04:48:30.347Z,100932.00
2022-10-21T04:50:32.576Z,100926.66
2022-10-21T04:52:34.050Z,100933.63
2022-10-21T04:54:35.460Z,100925.66
2022-10-21T04:56:36.983Z,100929.09
2022-10-21T04:58:38.439Z,100923.72
2022-10-21T05:00:39.950Z,100922.72
2022-10-21T05:02:41.771Z,100918.22
2022-10-21T05:04:43.388Z,100922.53
2022-10-21T05:06:44.834Z,100920.69
2022-10-21T05:08:46.278Z,100919.81
2022-10-21T05:10:48.387Z,100918.91
2022-10-21T05:12:49.811Z,100918.81
2022-10-21T05:14:51.300Z,100920.53
2022-10-21T05:16:52.755Z,100917.84
2022-10-21T05:18:54.202Z,100904.59
2022-10-21T05:20:56.475Z,100894.06
2022-10-21T05:22:57.893Z,100878.22
2022-10-21T05:24:59.348Z,100870.34
2022-10-21T05:27:00.783Z,100869.31
2022-10-21T05:29:02.210Z,100866.69
2022-10-21T05:31:03.720Z,100867.59
2022-10-21T05:33:05.663Z,100876.34
2022-10-21T05:35:07.964Z,100870.16
2022-10-21T05:37:09.388Z,100872.75
2022-10-21T05:39:11.591Z,100879.81
2022-10-21T05:41:13.172Z,100874.47
2022-10-21T05:43:14.609Z,100866.59
2022-10-21T05:45:16.353Z,100881.50
2022-10-21T05:47:17.782Z,100884.13
2022-10-21T05:49:19.684Z,100870.91
2022-10-21T05:51:26.318Z,100880.56
2022-10-21T05:53:27.768Z,100880.56
2022-10-21T05:55:29.220Z,100879.66
2022-10-21T05:57:38.204Z,100878.75
2022-10-21T05:59:39.709Z,100880.50
2022-10-21T06:01:41.223Z,100885.81
2022-10-21T06:03:42.675Z,100883.16
2022-10-21T06:05:44.114Z,100884.94
2022-10-21T06:07:45.551Z,100889.34
2022-10-21T06:09:46.964Z,100892.88
2022-10-21T06:11:48.387Z,100887.63
2022-10-21T06:13:50.696Z,100893.78
2022-10-21T06:15:52.136Z,100891.13
2022-10-21T06:17:53.640Z,100896.41
2022-10-21T06:19:55.121Z,100894.69
2022-10-21T06:21:57.765Z,100896.47
2022-10-21T06:23:59.214Z,100899.13
2022-10-21T06:26:11.805Z,100888.56
2022-10-21T06:28:13.212Z,100885.09
2022-10-21T06:30:14.671Z,100891.25
2022-10-21T06:32:16.108Z,100895.72
2022-10-21T06:36:23.943Z,100894.84
2022-10-21T06:38:28.516Z,100908.00
2022-10-21T06:40:29.982Z,100901.00
2022-10-21T06:42:31.503Z,100902.72
2022-10-21T06:44:32.989Z,100908.88
2022-10-21T06:46:34.433Z,100912.38
2022-10-21T06:48:35.981Z,100919.44
2022-10-21T06:50:38.089Z,100917.66
2022-10-21T06:52:40.299Z,100911.47
2022-10-21T06:54:41.814Z,100922.91
2022-10-21T06:56:43.312Z,100920.25
2022-10-21T06:58:49.331Z,100920.25
2022-10-21T07:00:50.808Z,100926.47
2022-10-21T07:02:52.248Z,100923.78
2022-10-21T07:04:53.781Z,100923.78
2022-10-21T07:06:55.388Z,100929.94
2022-10-21T07:08:58.799Z,100928.19
2022-10-21T07:11:01.061Z,100932.56
2022-10-21T07:13:02.471Z,100928.13
2022-10-21T07:15:04.348Z,100937.78
2022-10-21T07:17:05.896Z,100938.63
2022-10-21T07:19:08.625Z,100932.47
2022-10-21T07:21:14.948Z,100934.16
2022-10-21T07:23:16.366Z,100943.81
2022-10-21T07:25:17.792Z,100947.28
2022-10-21T07:27:19.249Z,100943.56
2022-10-21T07:29:20.710Z,100935.59
2022-10-21T07:31:22.406Z,100942.53
2022-10-21T07:33:25.022Z,100939.88
2022-10-21T07:35:26.483Z,100947.66
2022-10-21T07:37:27.915Z,100941.47
2022-10-21T07:39:29.407Z,100944.88
2022-10-21T07:41:37.744Z,100947.38
2022-10-21T07:43:39.285Z,100943.78
2022-10-21T07:45:42.381Z,100944.59
2022-10-21T07:47:43.875Z,100941.94
2022-10-21T07:49:45.293Z,100934.84
2022-10-21T07:51:47.285Z,100925.13
2022-10-21T07:53:51.458Z,100932.06
2022-10-21T07:56:01.968Z,100931.88
2022-10-21T07:58:04.996Z,100933.41
2022-10-21T08:00:09.126Z,100937.63
2022-10-21T08:02:13.907Z,100940.13
2022-10-21T08:04:18.587Z,100942.66
2022-10-21T08:06:20.598Z,100939.06
2022-10-21T08:08:22.651Z,100946.09
2022-10-21T08:10:24.079Z,100948.47
2022-10-21T08:12:25.795Z,100944.75
2022-10-21T08:14:27.364Z,100937.47
2022-10-21T08:16:28.870Z,100934.16
2022-10-21T08:18:30.356Z,100929.50
2022-10-21T08:20:32.442Z,100930.28
2022-10-21T08:22:33.888Z,100926.66
2022-10-21T08:24:39.905Z,100927.56
2022-10-21T08:26:43.713Z,100920.22
2022-10-21T08:28:45.292Z,100918.44
2022-10-21T08:30:46.876Z,100926.22
2022-10-21T08:32:48.337Z,100926.28
2022-10-21T08:34:49.751Z,100931.47
2022-10-21T08:36:51.183Z,100942.81
2022-10-21T08:38:53.587Z,100939.22
2022-10-21T08:40:55.854Z,100943.47
2022-10-21T08:43:07.631Z,100934.63
2022-10-21T08:45:28.183Z,100937.25
2022-10-21T08:47:47.725Z,100925.66
2022-10-21T08:50:16.479Z,100930.00
2022-10-21T08:52:56.338Z,100937.03
2022-10-21T08:55:01.380Z,100929.88
2022-10-21T08:57:03.095Z,100925.34
2022-10-21T08:59:15.837Z,100926.09
2022-10-21T09:01:30.165Z,100924.25
2022-10-21T09:03:46.881Z,100927.50
2022-10-21T09:06:09.283Z,100928.94
2022-10-21T09:08:18.390Z,100932.03
2022-10-21T09:10:34.544Z,100934.47
2022-10-21T09:12:53.619Z,100926.69
2022-10-21T09:14:58.541Z,100929.75
2022-10-21T09:17:08.956Z,100921.41
2022-10-21T09:19:22.387Z,100920.06
2022-10-21T09:21:42.613Z,100921.41
2022-10-21T09:24:01.638Z,100923.75
2022-10-21T09:26:18.649Z,100922.41
2022-10-21T09:28:20.072Z,100928.13
2022-10-21T09:30:22.941Z,100920.75
2022-10-21T09:34:58.060Z,100906.53
2022-10-21T09:37:01.115Z,100907.13
2022-10-21T09:39:18.273Z,100910.31
2022-10-21T09:41:23.920Z,100910.03
2022-10-21T09:43:26.908Z,100905.28
2022-10-21T09:45:36.844Z,100908.31
2022-10-21T09:47:38.261Z,100907.06
2022-10-21T09:50:06.006Z,100914.91
2022-10-21T09:52:06.980Z,100908.78
2022-10-21T09:54:19.689Z,100907.31
2022-10-21T09:56:23.646Z,100914.72
2022-10-21T09:58:48.382Z,100901.03
2022-10-21T10:00:50.821Z,100907.78
2022-10-21T10:02:52.284Z,100899.44
2022-10-21T10:04:53.784Z,100906.91
2022-10-21T10:06:55.267Z,100900.44
2022-10-21T10:09:14.372Z,100896.47
2022-10-21T10:11:20.354Z,100898.75
2022-10-21T10:13:22.550Z,100894.84
2022-10-21T10:15:36.491Z,100893.53
2022-10-21T10:17:39.707Z,100894.78
2022-10-21T10:19:41.147Z,100890.84
2022-10-21T10:21:42.716Z,100882.22
2022-10-21T10:23:45.455Z,100890.53
2022-10-21T10:25:50.816Z,100883.00
2022-10-21T10:27:53.803Z,100882.69
2022-10-21T10:29:58.565Z,100896.34
2022-10-21T10:32:01.665Z,100894.06
2022-10-21T10:34:08.689Z,100897.91
2022-10-21T10:36:26.612Z,100890.84
2022-10-21T10:38:51.624Z,100882.88
2022-10-21T10:40:56.329Z,100889.44
2022-10-21T10:43:06.032Z,100896.59
2022-10-21T10:45:19.585Z,100894.47
2022-10-21T10:47:29.316Z,100901.66
2022-10-21T10:49:42.250Z,100894.00
2022-10-21T10:51:47.319Z,100889.81
2022-10-21T10:54:00.885Z,100889.47
2022-10-21T10:56:11.278Z,100891.78
2022-10-21T10:58:15.437Z,100895.28
2022-10-21T11:00:23.207Z,100889.69
2022-10-21T11:02:35.307Z,100894.66
2022-10-21T11:04:49.479Z,100895.97
2022-10-21T11:06:58.719Z,100889.22
2022-10-21T11:09:01.808Z,100891.91
2022-10-21T11:11:07.453Z,100892.53
2022-10-21T11:13:20.660Z,100883.81
2022-10-21T11:15:46.993Z,100887.09
2022-10-21T11:18:24.054Z,100887.41
2022-10-21T11:20:40.497Z,100889.25
2022-10-21T11:22:50.604Z,100894.16
2022-10-21T11:25:14.241Z,100889.03
2022-10-21T11:27:19.246Z,100893.97
2022-10-21T11:29:29.578Z,100891.38
2022-10-21T11:31:53.914Z,100886.31
2022-10-21T11:34:59.323Z,100885.00
2022-10-21T11:37:33.173Z,100888.13
2022-10-21T11:39:42.576Z,100889.56
2022-10-21T11:41:50.878Z,100898.38
2022-10-21T11:44:42.545Z,100887.19
2022-10-21T11:46:51.287Z,100892.81
2022-10-21T11:49:16.808Z,100891.28
2022-10-21T11:51:21.165Z,100888.72
2022-10-21T11:53:38.215Z,100889.84
2022-10-21T11:55:45.583Z,100893.88
2022-10-21T11:57:58.353Z,100886.13
2022-10-21T12:00:13.737Z,100887.47
2022-10-21T12:02:21.664Z,100887.06
2022-10-21T12:04:33.193Z,100884.00
2022-10-21T12:06:52.298Z,100883.56
2022-10-21T12:09:15.832Z,100877.53
2022-10-21T12:11:23.856Z,100884.78
2022-10-21T12:13:31.647Z,100881.63
2022-10-21T12:15:41.333Z,100877.41
2022-10-21T12:17:45.082Z,100876.72
2022-10-21T12:19:59.605Z,100873.47
2022-10-21T12:22:02.039Z,100875.81
2022-10-21T12:24:25.926Z,100876.16
2022-10-21T12:26:59.302Z,100882.00
2022-10-21T12:29:19.631Z,100877.84
2022-10-21T12:31:34.194Z,100878.78
2022-10-21T12:33:42.322Z,100865.34
2022-10-21T12:35:53.066Z,100871.63
2022-10-21T12:37:54.437Z,100877.25
2022-10-21T12:40:29.240Z,100874.56
2022-10-21T12:42:30.724Z,100882.75
2022-10-21T12:44:33.290Z,100878.00
2022-10-21T12:46:49.748Z,100879.75
2022-10-21T12:48:52.405Z,100877.84
2022-10-21T12:51:07.164Z,100879.06
2022-10-21T12:53:29.813Z,100874.75
2022-10-21T12:55:39.573Z,100873.31
2022-10-21T12:57:42.254Z,100867.44
2022-10-21T12:59:44.088Z,100872.84
2022-10-21T13:02:05.438Z,100873.03
2022-10-21T13:04:31.663Z,100872.25
2022-10-21T13:06:54.513Z,100873.19
2022-10-21T13:08:56.484Z,100871.56
2022-10-21T13:11:06.660Z,100872.34
2022-10-21T13:13:28.681Z,100873.28
2022-10-21T13:15:30.053Z,100869.75
2022-10-21T13:17:52.017Z,100864.41
2022-10-21T13:20:15.011Z,100862.69
2022-10-21T13:22:38.081Z,100863.66
2022-10-21T13:24:41.378Z,100866.56
2022-10-21T13:26:57.089Z,100866.50
2022-10-21T13:29:33.436Z,100866.75
2022-10-21T13:31:34.997Z,100871.22
2022-10-21T13:33:38.627Z,100868.72
2022-10-21T13:35:54.786Z,100882.25
2022-10-21T13:38:04.035Z,100877.81
2022-10-21T13:40:16.464Z,100887.63
2022-10-21T13:42:20.654Z,100890.38
2022-10-21T13:44:30.082Z,100891.25
2022-10-21T13:46:39.217Z,100894.88
2022-10-21T13:48:46.264Z,100887.03
2022-10-21T13:50:49.787Z,100894.25
2022-10-21T13:52:53.801Z,100896.94
2022-10-21T13:55:03.231Z,100896.06
2022-10-21T13:57:08.707Z,100890.91
2022-10-21T13:59:26.615Z,100899.75
2022-10-21T14:01:51.022Z,100899.69
2022-10-21T14:03:55.161Z,100898.81
2022-10-21T14:06:01.298Z,100892.44
2022-10-21T14:08:05.113Z,100900.38
2022-10-21T14:10:08.081Z,100902.09
2022-10-21T14:12:21.887Z,100901.16
2022-10-21T14:14:26.274Z,100902.19
2022-10-21T14:16:34.858Z,100902.25
2022-10-21T14:18:38.122Z,100909.75
2022-10-21T14:20:40.902Z,100910.59
2022-10-21T14:22:48.325Z,100896.41
2022-10-21T14:24:56.572Z,100897.25
2022-10-21T14:26:58.319Z,100898.22
2022-10-21T14:29:01.640Z,100897.34
2022-10-21T14:33:15.253Z,100892.00
2022-10-21T14:35:16.639Z,100889.34
2022-10-21T14:37:20.785Z,100887.53
2022-10-21T14:39:22.740Z,100887.53
2022-10-21T14:41:37.475Z,100880.41
2022-10-21T14:43:41.069Z,100884.94
2022-10-21T14:45:51.975Z,100863.88
2022-10-21T14:48:01.979Z,100864.91
2022-10-21T14:50:04.099Z,100860.84
2022-10-21T14:52:08.032Z,100868.94
2022-10-21T14:54:26.184Z,100870.75
2022-10-21T14:56:40.095Z,100871.84
2022-10-21T14:58:42.492Z,100871.84
2022-10-21T15:00:44.048Z,100865.75
2022-10-21T15:02:46.086Z,100864.03
2022-10-21T15:04:57.243Z,100857.91
2022-10-21T15:07:01.432Z,100862.44
2022-10-21T15:09:12.227Z,100871.38
2022-10-21T15:11:18.687Z,100871.28
2022-10-21T15:13:20.665Z,100864.19
2022-10-21T15:15:40.340Z,100870.50
2022-10-21T15:17:42.154Z,100871.53
2022-10-21T15:19:50.452Z,100875.16
2022-10-21T15:21:53.832Z,100872.56
2022-10-21T15:23:59.104Z,100874.28
2022-10-21T15:26:05.781Z,100872.47
2022-10-21T15:28:12.861Z,100867.16
2022-10-21T15:30:20.498Z,100866.28
2022-10-21T15:32:25.589Z,100868.25
2022-10-21T15:34:31.582Z,100880.97
2022-10-21T15:36:32.980Z,100894.56
2022-10-21T15:38:39.714Z,100898.31
2022-10-21T15:40:41.174Z,100901.97
2022-10-21T15:42:43.945Z,100900.41
2022-10-21T15:44:51.468Z,100896.19
2022-10-21T15:46:58.270Z,100899.97
2022-10-21T15:49:08.560Z,100905.44
2022-10-21T15:51:10.110Z,100900.19
2022-10-21T15:53:11.724Z,100909.19
2022-10-21T15:55:13.162Z,100907.44
2022-10-21T15:57:21.009Z,100908.41
2022-10-21T15:59:26.247Z,100907.69
2022-10-21T16:01:27.745Z,100908.78
2022-10-21T16:03:30.456Z,100908.88
2022-10-21T16:05:32.117Z,100902.69
2022-10-21T16:07:34.207Z,100908.00
2022-10-21T16:09:35.647Z,100917.81
2022-10-21T16:11:40.962Z,100913.41
2022-10-21T16:13:43.174Z,100912.63
2022-10-21T16:15:44.651Z,100918.03
2022-10-21T16:17:49.624Z,100921.63
2022-10-21T16:19:51.062Z,100921.88
2022-10-21T16:21:52.487Z,100920.16
2022-10-21T16:23:55.750Z,100918.50
2022-10-21T16:25:57.155Z,100917.81
2022-10-21T16:27:58.733Z,100919.59
2022-10-21T16:30:00.226Z,100922.25
2022-10-21T16:32:01.661Z,100917.00
2022-10-21T16:34:03.131Z,100925.94
2022-10-21T16:36:26.493Z,100925.22
2022-10-21T16:38:27.926Z,100919.13
2022-10-21T16:40:34.791Z,100917.41
2022-10-21T16:42:36.269Z,100920.13
2022-10-21T16:44:37.745Z,100918.38
2022-10-21T16:46:41.800Z,100925.66
2022-10-21T16:48:43.847Z,100918.75
2022-10-21T16:50:46.380Z,100923.38
2022-10-21T16:52:48.294Z,100920.72
2022-10-21T16:54:50.314Z,100926.03
2022-10-21T16:56:54.825Z,100926.97
2022-10-21T16:58:57.086Z,100931.50
2022-10-21T17:00:58.839Z,100926.34
2022-10-21T17:03:00.435Z,100926.50
2022-10-21T17:05:01.984Z,100930.09
2022-10-21T17:07:03.645Z,100939.00
2022-10-21T17:09:05.320Z,100927.56
2022-10-21T17:11:14.084Z,100928.59
2022-10-21T17:13:15.614Z,100933.84
2022-10-21T17:15:17.040Z,100937.44
2022-10-21T17:17:21.015Z,100940.19
2022-10-21T17:19:22.565Z,100944.63
2022-10-21T17:21:28.909Z,100952.78
2022-10-21T17:23:30.531Z,100951.91
2022-10-21T17:25:32.468Z,100949.31
2022-10-21T17:27:33.954Z,100945.00
2022-10-21T17:29:35.414Z,100954.00
2022-10-21T17:31:40.684Z,100950.53
2022-10-21T17:33:42.625Z,100955.97
2022-10-21T17:35:44.298Z,100948.06
2022-10-21T17:37:48.902Z,100948.06
2022-10-21T17:39:50.385Z,100952.66
2022-10-21T17:41:52.310Z,100946.53
2022-10-21T17:43:53.753Z,100952.78
2022-10-21T17:45:56.824Z,100946.69
2022-10-21T17:47:58.619Z,100951.19
2022-10-21T17:50:00.137Z,100954.81
2022-10-21T17:52:01.597Z,100956.66
2022-10-21T17:54:03.043Z,100957.69
2022-10-21T17:56:06.564Z,100957.81
2022-10-21T17:58:08.007Z,100960.47
2022-10-21T18:00:09.974Z,100965.00
2022-10-21T18:02:11.451Z,100961.56
2022-10-21T18:04:13.418Z,100961.63
2022-10-21T18:06:15.840Z,100963.44
2022-10-21T18:08:17.535Z,100958.19
2022-10-21T18:10:18.992Z,100961.78
2022-10-21T18:12:20.451Z,100960.97
2022-10-21T18:14:22.000Z,100961.06
2022-10-21T18:16:24.172Z,100966.44
2022-10-21T18:18:25.824Z,100965.72
2022-10-21T18:20:27.260Z,100966.56
2022-10-21T18:22:28.714Z,100966.56
2022-10-21T18:24:30.344Z,100979.88
2022-10-21T18:26:32.335Z,100980.81
2022-10-21T18:28:34.423Z,100976.50
2022-10-21T18:30:42.518Z,100978.28
2022-10-21T18:32:43.947Z,100975.66
2022-10-21T18:34:45.459Z,100978.31
2022-10-21T18:36:47.526Z,100976.66
2022-10-21T18:38:49.001Z,100974.06
2022-10-21T18:40:56.589Z,100973.28
2022-10-21T18:43:03.614Z,100965.38
2022-10-21T18:45:06.032Z,100969.75
2022-10-21T18:47:07.443Z,100972.41
2022-10-21T18:49:12.581Z,100976.88
2022-10-21T18:51:18.846Z,100980.47
2022-10-21T18:53:20.412Z,100984.94
2022-10-21T18:55:21.941Z,100982.25
2022-10-21T18:57:23.423Z,100977.94
2022-10-21T18:59:24.894Z,100970.84
2022-10-21T19:01:26.932Z,100977.88
2022-10-21T19:03:28.555Z,100971.75
2022-10-21T19:05:30.393Z,100974.44
2022-10-21T19:07:31.982Z,100972.56
2022-10-21T19:09:33.418Z,100978.81
2022-10-21T19:11:35.056Z,100975.28
2022-10-21T19:13:36.526Z,100981.41
2022-10-21T19:15:38.128Z,100977.88
2022-10-21T19:17:41.789Z,100984.06
2022-10-21T19:19:43.609Z,100978.75
2022-10-21T19:21:45.115Z,100980.59
2022-10-21T19:23:46.726Z,100971.69
2022-10-21T19:25:48.184Z,100982.34
2022-10-21T19:27:49.845Z,100984.19
2022-10-21T19:29:51.757Z,100978.00
2022-10-21T19:31:55.744Z,100986.78
2022-10-21T19:33:58.515Z,100981.59
2022-10-21T19:36:01.868Z,100981.59
2022-10-21T19:38:07.826Z,100983.47
2022-10-21T19:40:12.953Z,100985.25
2022-10-21T19:42:15.550Z,100988.84
2022-10-21T19:44:17.186Z,100990.66
2022-10-21T19:46:24.839Z,100988.00
2022-10-21T19:48:27.077Z,100990.19
2022-10-21T19:50:28.742Z,100994.50
2022-10-21T19:52:30.253Z,100996.25
2022-10-21T19:54:31.669Z,100996.31
2022-10-21T19:56:34.424Z,100992.78
2022-10-21T19:58:39.365Z,100997.16
2022-10-21T20:00:40.888Z,100999.91
2022-10-21T20:02:42.707Z,101004.34
2022-10-21T20:04:44.339Z,101016.72
2022-10-21T20:06:45.904Z,101007.88
2022-10-21T20:08:47.620Z,100999.09
2022-10-21T20:11:03.908Z,101004.41
2022-10-21T20:13:05.413Z,101001.81
2022-10-21T20:15:07.304Z,101000.97
2022-10-21T20:17:08.928Z,101000.97
2022-10-21T20:19:12.317Z,101003.69
2022-10-21T20:21:14.164Z,101009.94
2022-10-21T20:23:15.855Z,101010.00
2022-10-21T20:25:17.337Z,101016.31
2022-10-21T20:27:18.786Z,101018.16
2022-10-21T20:29:20.285Z,101016.44
2022-10-21T20:31:21.755Z,101021.81
2022-10-21T20:33:23.369Z,101024.50
2022-10-21T20:35:24.920Z,101029.91
2022-10-21T20:37:26.361Z,101028.22
2022-10-21T20:39:27.895Z,101034.41
2022-10-21T20:41:33.993Z,101029.16
2022-10-21T20:43:37.223Z,101031.88
2022-10-21T20:45:38.738Z,101029.28
2022-10-21T20:47:40.420Z,101031.94
2022-10-21T20:49:42.060Z,101029.28
2022-10-21T20:51:43.487Z,101024.91
2022-10-21T20:55:56.356Z,101016.00
2022-10-21T20:57:57.831Z,101016.06
2022-10-21T20:59:59.388Z,101011.69
2022-10-21T21:02:00.874Z,101017.06
2022-10-21T21:04:06.087Z,101011.81
2022-10-21T21:06:07.602Z,101012.81
2022-10-21T21:08:09.116Z,101013.81
2022-10-21T21:10:10.750Z,101015.72
2022-10-21T21:12:12.196Z,101014.94
2022-10-21T21:14:14.065Z,101013.31
2022-10-21T21:16:22.180Z,101020.50
2022-10-21T21:18:23.689Z,101020.66
2022-10-21T21:20:25.324Z,101024.38
2022-10-21T21:22:26.737Z,101026.31
2022-10-21T21:24:28.197Z,101018.47
2022-10-21T21:26:31.933Z,101021.19
2022-10-21T21:28:36.309Z,101023.97
2022-10-21T21:30:37.947Z,101014.34
2022-10-21T21:32:39.766Z,101019.78
2022-10-21T21:34:41.595Z,101015.38
2022-10-21T21:36:43.010Z,101019.84
2022-10-21T21:38:44.978Z,101022.59
2022-10-21T21:40:46.780Z,101022.66
2022-10-21T21:42:48.506Z,101029.97
2022-10-21T21:44:49.969Z,101031.81
2022-10-21T21:46:51.639Z,101030.25
2022-10-21T21:49:00.871Z,101032.16
2022-10-21T21:51:06.927Z,101037.66
2022-10-21T21:53:10.574Z,101033.41
2022-10-21T21:55:12.037Z,101030.19
2022-10-21T21:57:27.335Z,101040.06
2022-10-21T21:59:30.957Z,101036.72
2022-10-21T22:01:32.486Z,101037.72
2022-10-21T22:03:33.983Z,101035.13
2022-10-21T22:05:35.465Z,101038.81
2022-10-21T22:07:36.965Z,101041.63
2022-10-21T22:09:38.746Z,101040.00
2022-10-21T22:11:40.248Z,101046.31
2022-10-21T22:13:42.511Z,101044.56
2022-10-21T22:15:48.021Z,101042.84
2022-10-21T22:17:51.411Z,101030.59
2022-10-21T22:19:53.930Z,101042.09
2022-10-21T22:21:55.572Z,101038.72
2022-10-21T22:23:57.598Z,101047.69
2022-10-21T22:25:59.421Z,101046.84
2022-10-21T22:28:00.877Z,101040.78
2022-10-21T22:30:02.790Z,101042.63
2022-10-21T22:32:04.587Z,101050.63
2022-10-21T22:34:09.213Z,101052.34
2022-10-21T22:36:13.399Z,101045.38
2022-10-21T22:38:14.937Z,101048.03
2022-10-21T22:40:16.356Z,101049.81
2022-10-21T22:42:18.002Z,101048.09
2022-10-21T22:44:22.051Z,101044.56
2022-10-21T22:46:39.167Z,101041.97
2022-10-21T22:48:40.647Z,101039.44
2022-10-21T22:50:42.327Z,101036.81
2022-10-21T22:52:43.815Z,101043.94
2022-10-21T22:54:49.470Z,101038.75
2022-10-21T22:56:51.540Z,101033.56
2022-10-21T22:58:53.094Z,101031.88
2022-10-21T23:02:56.956Z,101033.81
2022-10-21T23:04:58.410Z,101037.38
2022-10-21T23:06:59.849Z,101032.19
2022-10-21T23:09:02.311Z,101031.31
2022-10-21T23:11:03.982Z,101031.38
2022-10-21T23:13:06.227Z,101034.13
2022-10-21T23:15:08.182Z,101031.53
2022-10-21T23:17:09.906Z,101029.84
2022-10-21T23:21:18.148Z,101038.78
2022-10-21T23:23:19.604Z,101034.44
2022-10-21T23:25:22.902Z,101035.38
2022-10-21T23:27:24.365Z,101041.63
2022-10-21T23:29:25.842Z,101038.19
2022-10-21T23:31:27.357Z,101037.38
2022-10-21T23:33:28.789Z,101034.75
2022-10-21T23:35:30.327Z,101036.59
2022-10-21T23:37:31.786Z,101029.56
2022-10-21T23:39:33.357Z,101032.38
2022-10-21T23:41:34.803Z,101033.41
2022-10-21T23:43:36.248Z,101031.75
2022-10-21T23:45:38.400Z,101030.06
2022-10-21T23:47:40.260Z,101016.88
2022-10-21T23:49:42.944Z,101031.03
2022-10-21T23:51:44.370Z,101024.97
2022-10-21T23:53:45.852Z,101022.47
2022-10-21T23:55:47.326Z,101026.91
2022-10-21T23:57:48.918Z,101034.91
2022-10-21T23:59:50.350Z,101034.13
